Whiting, Iowa
Current Conditions -  °F | °C
As of 10:52 PM on Tuesday 21 Oct 2014 (Local Time) from KSUX Reporting Station
Clear Clear  
Wind Chill: 50°   Ceiling: Unl
Heat Index: 50°   Visibility: 10mi
Dew Point: 41°   Wind: 9mph
Humidity: 71%   Direction: 130°SE
Pressure: 30.06"   Gusts: NA
Location:  42.13°N, 96.15°W
Report Text: KSUX 220352Z AUTO 13008KT 10SM CLR 10/05 A3006 RMK AO2 SLP180 T01000050
Loading
Personal Weather Stations






























Interactive Weather Map
Tropical Storm Tracking
New forecast layout! Learn more

10-Day Weather Forecast

Advertisements
Track Severe Weather on mobile